Time;durP1;ratioP1;P1;durP2;ratioP2;P2;SDS_P1;SDS_P2;PMS_P1;PMS_P2;Temp;Humidity;BMP_temperature;BMP_pressure;BME280_temperature;BME280_humidity;BME280_pressure;Samples;Min_cycle;Max_cycle;Signal;HPM_P1;HPM_P2
2022/10/26 00:01:01;;;;;;;10.20;9.70;;;;;;;-143.83;100.00;62900.06;5088326;28;20082;-67
2022/10/26 00:03:26;;;;;;;9.75;9.35;;;;;;;-143.83;100.00;62900.06;5081324;28;20066;-66
2022/10/26 00:05:52;;;;;;;10.15;9.65;;;;;;;-143.83;100.00;62900.06;5084602;28;20033;-66
2022/10/26 00:08:17;;;;;;;10.70;10.20;;;;;;;-143.83;100.00;62900.06;5091842;28;20097;-66
2022/10/26 00:10:42;;;;;;;10.80;10.30;;;;;;;-143.83;100.00;62900.06;5079228;28;20115;-66
2022/10/26 00:13:11;;;;;;;10.50;10.00;;;;;;;-143.83;100.00;62900.06;5081602;28;20040;-66
2022/10/26 00:15:40;;;;;;;10.30;9.80;;;;;;;-143.83;100.00;62900.06;5080532;28;20082;-65
2022/10/26 00:18:06;;;;;;;10.25;9.75;;;;;;;-143.83;100.00;62900.06;5083759;28;20432;-66
2022/10/26 00:20:31;;;;;;;10.13;9.63;;;;;;;-143.83;100.00;62900.06;5086413;28;20054;-68
2022/10/26 00:22:57;;;;;;;10.10;9.60;;;;;;;-143.83;100.00;62900.06;5084783;28;20538;-65
2022/10/26 00:25:22;;;;;;;10.23;9.73;;;;;;;-143.83;100.00;62900.06;5083247;28;20073;-65
2022/10/26 00:27:48;;;;;;;11.50;10.90;;;;;;;-143.83;100.00;62900.06;5085263;28;20105;-65
2022/10/26 00:30:13;;;;;;;10.00;9.50;;;;;;;-143.83;100.00;62900.06;5082947;28;20028;-65
2022/10/26 00:32:39;;;;;;;9.98;9.50;;;;;;;-143.83;100.00;62900.06;5085340;28;20107;-66
2022/10/26 00:35:04;;;;;;;10.00;9.50;;;;;;;-143.83;100.00;62900.06;5090995;28;20019;-66
2022/10/26 00:37:30;;;;;;;10.32;9.82;;;;;;;-143.83;100.00;62900.06;5082778;28;20078;-65
2022/10/26 00:39:55;;;;;;;10.20;9.70;;;;;;;-143.83;100.00;62900.06;5078832;28;20035;-65
2022/10/26 00:42:23;;;;;;;10.10;9.60;;;;;;;-143.83;100.00;62900.06;5085453;28;20028;-66
2022/10/26 00:44:48;;;;;;;10.48;9.98;;;;;;;-143.83;100.00;62900.06;5086026;28;20039;-66
2022/10/26 00:47:28;;;;;;;9.60;9.20;;;;;;;-143.83;100.00;62900.06;5084668;28;20024;-66
2022/10/26 00:49:56;;;;;;;9.85;9.40;;;;;;;-143.83;100.00;62900.06;5084703;28;20036;-66
2022/10/26 00:52:23;;;;;;;9.90;9.40;;;;;;;-143.83;100.00;62900.06;5083936;28;20031;-66
2022/10/26 00:54:50;;;;;;;9.68;9.23;;;;;;;-143.83;100.00;62900.06;5085389;28;20028;-66
2022/10/26 00:57:17;;;;;;;10.18;9.68;;;;;;;-143.83;100.00;62900.06;5088394;28;20071;-65
2022/10/26 00:59:44;;;;;;;9.40;9.00;;;;;;;-143.83;100.00;62900.06;5082451;28;20076;-65
2022/10/26 01:02:11;;;;;;;9.85;9.40;;;;;;;-143.83;100.00;62900.06;5088189;28;20051;-66
2022/10/26 01:04:37;;;;;;;9.85;9.40;;;;;;;-143.83;100.00;62900.06;5083201;28;20027;-65
2022/10/26 01:07:04;;;;;;;9.75;9.25;;;;;;;-143.83;100.00;62900.06;5086110;28;20387;-65
2022/10/26 01:09:32;;;;;;;9.77;9.35;;;;;;;-143.83;100.00;62900.06;5080627;28;20051;-65
2022/10/26 01:11:57;;;;;;;10.52;10.02;;;;;;;-143.83;100.00;62900.06;5079643;28;20032;-64
2022/10/26 01:14:26;;;;;;;10.10;9.60;;;;;;;-143.83;100.00;62900.06;5082863;28;20074;-65
2022/10/26 01:17:10;;;;;;;9.90;9.40;;;;;;;-143.83;100.00;62900.06;5079636;28;20036;-64
2022/10/26 01:19:57;;;;;;;9.88;9.38;;;;;;;-143.83;100.00;62900.06;5083476;28;20023;-65
2022/10/26 01:22:31;;;;;;;9.70;9.30;;;;;;;-143.83;100.00;62900.06;5081642;28;20138;-65
2022/10/26 01:25:08;;;;;;;10.02;9.52;;;;;;;-143.83;100.00;62900.06;5082490;28;20500;-65
2022/10/26 01:27:45;;;;;;;10.00;9.50;;;;;;;-143.83;100.00;62900.06;5080613;28;20074;-65
2022/10/26 01:30:38;;;;;;;10.55;10.05;;;;;;;-143.83;100.00;62900.06;5079923;28;20079;-65
2022/10/26 01:33:37;;;;;;;10.57;10.07;;;;;;;-143.83;100.00;62900.06;5079754;28;20317;-65
2022/10/26 01:36:06;;;;;;;9.70;9.30;;;;;;;-143.83;100.00;62900.06;5086985;28;20035;-65
2022/10/26 01:38:49;;;;;;;10.07;9.57;;;;;;;-143.83;100.00;62900.06;5082801;28;20056;-65
2022/10/26 01:41:34;;;;;;;9.90;9.43;;;;;;;-143.83;100.00;62900.06;5086721;28;20028;-65
2022/10/26 01:44:07;;;;;;;10.05;9.55;;;;;;;-143.83;100.00;62900.06;5083117;28;20028;-65
2022/10/26 01:46:38;;;;;;;9.60;9.20;;;;;;;-143.83;100.00;62900.06;5082410;28;20027;-65
2022/10/26 01:49:09;;;;;;;10.73;10.23;;;;;;;-143.83;100.00;62900.06;5086516;28;20034;-65
2022/10/26 01:51:35;;;;;;;10.27;9.77;;;;;;;-143.83;100.00;62900.06;5080554;28;20045;-65
2022/10/26 01:54:01;;;;;;;10.65;10.15;;;;;;;-143.83;100.00;62900.06;5084213;28;20027;-65
2022/10/26 01:56:29;;;;;;;10.90;10.40;;;;;;;-143.83;100.00;62900.06;5081377;28;20394;-65
2022/10/26 01:59:01;;;;;;;10.48;9.98;;;;;;;-143.83;100.00;62900.06;5080591;28;20024;-65
2022/10/26 02:01:48;;;;;;;10.00;9.50;;;;;;;-143.83;100.00;62900.06;5078636;28;20329;-65
2022/10/26 02:04:37;;;;;;;9.52;9.13;;;;;;;-143.83;100.00;62900.06;5084354;28;20399;-65
2022/10/26 02:07:27;;;;;;;10.40;9.90;;;;;;;-143.83;100.00;62900.06;5079156;28;20662;-65
2022/10/26 02:09:57;;;;;;;10.75;10.25;;;;;;;-143.83;100.00;62900.06;5083593;28;20032;-64
2022/10/26 02:12:57;;;;;;;10.70;10.20;;;;;;;-143.83;100.00;62900.06;5082467;28;20043;-65
2022/10/26 02:15:39;;;;;;;10.52;10.02;;;;;;;-143.83;100.00;62900.06;5078207;28;20506;-66
2022/10/26 02:18:30;;;;;;;10.13;9.63;;;;;;;-143.83;100.00;62900.06;5078361;28;20385;-65
2022/10/26 02:21:06;;;;;;;10.48;9.98;;;;;;;-143.83;100.00;62900.06;5083293;28;20029;-65
2022/10/26 02:23:36;;;;;;;9.60;9.20;;;;;;;-143.83;100.00;62900.06;5079293;28;20028;-65
2022/10/26 02:26:06;;;;;;;9.73;9.30;;;;;;;-143.83;100.00;62900.06;5080731;28;20028;-66
2022/10/26 02:28:43;;;;;;;9.40;9.00;;;;;;;-143.83;100.00;62900.06;5083885;28;21690;-65
2022/10/26 02:31:13;;;;;;;10.02;9.52;;;;;;;-143.83;100.00;62900.06;5086908;28;20016;-65
2022/10/26 02:33:43;;;;;;;10.23;9.73;;;;;;;-143.83;100.00;62900.06;5086429;28;20027;-65
2022/10/26 02:36:12;;;;;;;10.00;9.50;;;;;;;-143.83;100.00;62900.06;5083013;28;20028;-64
2022/10/26 02:38:40;;;;;;;9.88;9.40;;;;;;;-143.83;100.00;62900.06;5091940;28;20032;-64
2022/10/26 02:41:07;;;;;;;10.23;9.73;;;;;;;-143.83;100.00;62900.06;5085319;28;20035;-64
2022/10/26 02:43:40;;;;;;;10.18;9.68;;;;;;;-143.83;100.00;62900.06;5085929;28;20023;-65
2022/10/26 02:46:11;;;;;;;10.25;9.75;;;;;;;-143.83;100.00;62900.06;5090418;28;20024;-64
2022/10/26 02:48:36;;;;;;;10.20;9.70;;;;;;;-143.83;100.00;62900.06;5086253;28;20025;-66
2022/10/26 02:51:34;;;;;;;10.15;9.65;;;;;;;-143.83;100.00;62900.06;5085806;28;20464;-65
2022/10/26 02:54:13;;;;;;;9.95;9.45;;;;;;;-143.83;100.00;62900.06;5078033;28;20540;-65
2022/10/26 02:57:34;;;;;;;9.75;9.30;;;;;;;-143.83;100.00;62900.06;5087709;28;20051;-65
2022/10/26 03:00:00;;;;;;;10.27;9.77;;;;;;;-143.83;100.00;62900.06;5078179;28;20092;-66
2022/10/26 03:02:27;;;;;;;10.07;9.57;;;;;;;-143.83;100.00;62900.06;5087428;28;20039;-65
2022/10/26 03:04:54;;;;;;;10.13;9.63;;;;;;;-143.83;100.00;62900.06;5084771;28;20028;-66
2022/10/26 03:07:21;;;;;;;9.90;9.40;;;;;;;-143.83;100.00;62900.06;5088392;28;20062;-65
2022/10/26 03:09:48;;;;;;;10.60;10.10;;;;;;;-143.83;100.00;62900.06;5085839;28;20109;-65
2022/10/26 03:12:13;;;;;;;10.45;9.95;;;;;;;-143.83;100.00;62900.06;5086888;28;20024;-66
2022/10/26 03:14:40;;;;;;;9.65;9.25;;;;;;;-143.83;100.00;62900.06;5083120;28;20027;-65
2022/10/26 03:17:06;;;;;;;9.60;9.20;;;;;;;-143.83;100.00;62900.06;5085485;28;20972;-65
2022/10/26 03:19:31;;;;;;;9.95;9.45;;;;;;;-143.83;100.00;62900.06;5088070;28;20032;-65
2022/10/26 03:21:57;;;;;;;10.30;9.80;;;;;;;-143.83;100.00;62900.06;5080907;28;20032;-64
2022/10/26 03:24:22;;;;;;;9.80;9.40;;;;;;;-143.83;100.00;62900.06;5083667;28;20020;-66
2022/10/26 03:26:48;;;;;;;10.18;9.68;;;;;;;-143.83;100.00;62900.06;5086989;28;20028;-65
2022/10/26 03:29:13;;;;;;;11.43;10.82;;;;;;;-143.83;100.00;62900.06;5083649;28;20055;-65
2022/10/26 03:31:39;;;;;;;10.48;9.98;;;;;;;-143.83;100.00;62900.06;5086270;28;20017;-65
2022/10/26 03:34:04;;;;;;;10.40;9.90;;;;;;;-143.83;100.00;62900.06;5080908;28;20028;-65
2022/10/26 03:36:30;;;;;;;9.82;9.38;;;;;;;-143.83;100.00;62900.06;5092607;28;20020;-65
2022/10/26 03:38:55;;;;;;;10.10;9.60;;;;;;;-143.83;100.00;62900.06;5093069;28;20075;-65
2022/10/26 03:41:20;;;;;;;10.32;9.82;;;;;;;-143.83;100.00;62900.06;5089644;28;20031;-66
2022/10/26 03:43:47;;;;;;;10.38;9.88;;;;;;;-143.83;100.00;62900.06;5083051;28;20391;-65
2022/10/26 03:46:12;;;;;;;9.98;9.50;;;;;;;-143.83;100.00;62900.06;5090211;28;20035;-65
2022/10/26 03:48:38;;;;;;;10.68;10.18;;;;;;;-143.83;100.00;62900.06;5088893;28;20020;-65
2022/10/26 03:51:03;;;;;;;10.18;9.68;;;;;;;-143.83;100.00;62900.06;5088107;28;20036;-65
2022/10/26 03:53:29;;;;;;;10.30;9.80;;;;;;;-143.83;100.00;62900.06;5084340;28;20478;-65
2022/10/26 03:55:54;;;;;;;10.75;10.25;;;;;;;-143.83;100.00;62900.06;5087583;28;20040;-64
2022/10/26 03:58:20;;;;;;;10.05;9.55;;;;;;;-143.83;100.00;62900.06;5086852;28;20024;-65
2022/10/26 04:00:47;;;;;;;10.05;9.55;;;;;;;-143.83;100.00;62900.06;5088059;28;20031;-65
2022/10/26 04:03:13;;;;;;;10.10;9.60;;;;;;;-143.83;100.00;62900.06;5090595;28;21786;-65
2022/10/26 04:05:38;;;;;;;10.18;9.68;;;;;;;-143.83;100.00;62900.06;5084318;28;20012;-64
2022/10/26 04:08:04;;;;;;;10.52;10.02;;;;;;;-143.83;100.00;62900.06;5093419;28;20128;-65
2022/10/26 04:10:30;;;;;;;10.27;9.77;;;;;;;-143.83;100.00;62900.06;5085815;28;20020;-64
2022/10/26 04:13:00;;;;;;;10.40;9.90;;;;;;;-143.83;100.00;62900.06;5082507;28;20021;-63
2022/10/26 04:15:26;;;;;;;10.50;10.00;;;;;;;-143.83;100.00;62900.06;5085041;28;20034;-64
2022/10/26 04:18:00;;;;;;;11.27;10.68;;;;;;;-143.83;100.00;62900.06;5087091;28;20032;-65
2022/10/26 04:20:26;;;;;;;10.10;9.60;;;;;;;-143.83;100.00;62900.06;5086331;28;20476;-64
2022/10/26 04:23:00;;;;;;;10.18;9.68;;;;;;;-143.83;100.00;62900.06;5077485;28;20101;-65
2022/10/26 04:25:26;;;;;;;10.25;9.75;;;;;;;-143.83;100.00;62900.06;5084600;28;20112;-64
2022/10/26 04:27:51;;;;;;;10.63;10.13;;;;;;;-143.83;100.00;62900.06;5087988;28;20205;-64
2022/10/26 04:30:17;;;;;;;9.55;9.15;;;;;;;-143.83;100.00;62900.06;5087673;28;20016;-65
2022/10/26 04:32:43;;;;;;;10.20;9.70;;;;;;;-143.83;100.00;62900.06;5089607;28;20031;-64
2022/10/26 04:35:08;;;;;;;10.13;9.63;;;;;;;-143.83;100.00;62900.06;5077880;28;20024;-65
2022/10/26 04:37:34;;;;;;;9.70;9.30;;;;;;;-143.83;100.00;62900.06;5087414;28;20025;-65
2022/10/26 04:39:59;;;;;;;10.23;9.73;;;;;;;-143.83;100.00;62900.06;5081208;28;20031;-64
2022/10/26 04:42:25;;;;;;;10.50;10.00;;;;;;;-143.83;100.00;62900.06;5084560;28;20015;-65
2022/10/26 04:44:50;;;;;;;10.40;9.90;;;;;;;-143.83;100.00;62900.06;5075978;28;20064;-65
2022/10/26 04:47:16;;;;;;;10.50;10.00;;;;;;;-143.83;100.00;62900.06;5082446;28;20433;-63
2022/10/26 04:49:41;;;;;;;10.27;9.77;;;;;;;-143.83;100.00;62900.06;5084257;28;20016;-64
2022/10/26 04:52:06;;;;;;;10.18;9.68;;;;;;;-143.83;100.00;62900.06;5080820;28;20055;-65
2022/10/26 04:54:32;;;;;;;10.15;9.65;;;;;;;-143.83;100.00;62900.06;5082315;28;20050;-65
2022/10/26 04:56:57;;;;;;;10.38;9.88;;;;;;;-143.83;100.00;62900.06;5084432;28;20059;-65
2022/10/26 04:59:23;;;;;;;10.70;10.20;;;;;;;-143.83;100.00;62900.06;5083147;28;20080;-65
2022/10/26 05:01:48;;;;;;;10.20;9.70;;;;;;;-143.83;100.00;62900.06;5085468;28;20450;-65
2022/10/26 05:04:14;;;;;;;10.50;10.00;;;;;;;-143.83;100.00;62900.06;5085649;28;20043;-65
2022/10/26 05:06:39;;;;;;;11.25;10.68;;;;;;;-143.83;100.00;62900.06;5083650;28;20024;-65
2022/10/26 05:09:05;;;;;;;10.10;9.60;;;;;;;-143.83;100.00;62900.06;5082937;28;20055;-65
2022/10/26 05:11:30;;;;;;;10.10;9.60;;;;;;;-143.83;100.00;62900.06;5083712;28;20026;-65
2022/10/26 05:13:56;;;;;;;10.32;9.82;;;;;;;-143.83;100.00;62900.06;5081932;28;20077;-64
2022/10/26 05:16:21;;;;;;;10.23;9.73;;;;;;;-143.83;100.00;62900.06;5085439;28;20468;-65
2022/10/26 05:18:50;;;;;;;10.38;9.88;;;;;;;-143.83;100.00;62900.06;5079101;28;20028;-64
2022/10/26 05:21:18;;;;;;;10.18;9.68;;;;;;;-143.83;100.00;62900.06;5080236;28;20020;-65
2022/10/26 05:23:55;;;;;;;10.48;9.98;;;;;;;-143.83;100.00;62900.06;5083490;28;20024;-64
2022/10/26 05:26:22;;;;;;;10.60;10.10;;;;;;;-143.83;100.00;62900.06;5079274;28;20534;-65
2022/10/26 05:28:47;;;;;;;11.23;10.65;;;;;;;-143.83;100.00;62900.06;5078393;28;20414;-63
2022/10/26 05:31:13;;;;;;;10.18;9.68;;;;;;;-143.83;100.00;62900.06;5084394;28;20012;-65
2022/10/26 05:33:39;;;;;;;10.38;9.88;;;;;;;-143.83;100.00;62900.06;5081752;28;20025;-65
2022/10/26 05:36:05;;;;;;;10.40;9.90;;;;;;;-143.83;100.00;62900.06;5086500;28;20030;-65
2022/10/26 05:38:31;;;;;;;10.23;9.73;;;;;;;-143.83;100.00;62900.06;5079501;28;20059;-66
2022/10/26 05:40:57;;;;;;;10.85;10.35;;;;;;;-143.83;100.00;62900.06;5082075;28;20066;-65
2022/10/26 05:43:24;;;;;;;10.23;9.73;;;;;;;-143.83;100.00;62900.06;5082511;28;20032;-65
2022/10/26 05:45:50;;;;;;;12.25;11.63;;;;;;;-143.83;100.00;62900.06;5082077;28;20031;-64
2022/10/26 05:48:16;;;;;;;10.40;9.90;;;;;;;-143.83;100.00;62900.06;5083546;28;20021;-64
2022/10/26 05:50:41;;;;;;;10.07;9.57;;;;;;;-143.83;100.00;62900.06;5082625;28;20037;-65
2022/10/26 05:53:07;;;;;;;9.77;9.38;;;;;;;-143.83;100.00;62900.06;5082197;28;20016;-65
2022/10/26 05:55:33;;;;;;;10.35;9.85;;;;;;;-143.83;100.00;62900.06;5081641;28;20021;-64
2022/10/26 05:57:59;;;;;;;10.40;9.90;;;;;;;-143.83;100.00;62900.06;5082403;28;20111;-65
2022/10/26 06:00:26;;;;;;;10.20;9.70;;;;;;;-143.83;100.00;62900.06;5081429;28;20040;-66
2022/10/26 06:03:26;;;;;;;11.00;10.50;;;;;;;-143.83;100.00;62900.06;5081144;28;20112;-68
2022/10/26 06:05:52;;;;;;;10.73;10.23;;;;;;;-143.83;100.00;62900.06;5092453;28;20030;-66
2022/10/26 06:08:19;;;;;;;10.80;10.30;;;;;;;-143.83;100.00;62900.06;5087669;28;20036;-67
2022/10/26 06:10:45;;;;;;;10.52;10.02;;;;;;;-143.83;100.00;62900.06;5088767;28;20027;-68
2022/10/26 06:13:11;;;;;;;10.00;9.60;;;;;;;-143.83;100.00;62900.06;5093916;28;20020;-67
2022/10/26 06:16:03;;;;;;;10.20;9.70;;;;;;;-143.83;100.00;62900.06;5092207;28;20396;-68
2022/10/26 06:19:00;;;;;;;13.32;12.63;;;;;;;-143.83;100.00;62900.06;5092780;28;20039;-69
2022/10/26 06:22:10;;;;;;;10.50;10.00;;;;;;;-143.83;100.00;62900.06;5089115;28;20122;-68
2022/10/26 06:24:50;;;;;;;10.43;9.93;;;;;;;-143.83;100.00;62900.06;5092863;28;20028;-68
2022/10/26 06:27:29;;;;;;;10.40;9.90;;;;;;;-143.83;100.00;62900.06;5091484;28;20118;-68
2022/10/26 06:30:00;;;;;;;10.50;10.00;;;;;;;-143.83;100.00;62900.06;5093231;28;20154;-68
2022/10/26 06:32:26;;;;;;;10.82;10.32;;;;;;;-143.83;100.00;62900.06;5091413;28;20097;-67
2022/10/26 06:35:16;;;;;;;10.38;9.90;;;;;;;-143.83;100.00;62900.06;5092533;28;20429;-69
2022/10/26 06:37:44;;;;;;;10.57;10.07;;;;;;;-143.83;100.00;62900.06;5068164;28;20040;-71
2022/10/26 06:40:13;;;;;;;10.52;10.02;;;;;;;-143.83;100.00;62900.06;5082587;28;20023;-68
2022/10/26 06:42:39;;;;;;;10.90;10.40;;;;;;;-143.83;100.00;62900.06;5089100;28;20043;-69
2022/10/26 06:45:05;;;;;;;10.90;10.40;;;;;;;-143.83;100.00;62900.06;5098925;27;20035;-69
2022/10/26 06:48:20;;;;;;;10.55;10.05;;;;;;;-143.83;100.00;62900.06;5090390;28;20031;-70
2022/10/26 06:50:50;;;;;;;10.90;10.40;;;;;;;-143.83;100.00;62900.06;5077507;28;20037;-69
2022/10/26 06:53:19;;;;;;;10.68;10.18;;;;;;;-143.83;100.00;62900.06;5092877;28;20047;-67
2022/10/26 06:55:47;;;;;;;10.55;10.05;;;;;;;-143.83;100.00;62900.06;5084990;28;20054;-67
2022/10/26 06:58:18;;;;;;;10.60;10.10;;;;;;;-143.83;100.00;62900.06;5091944;28;20020;-70
2022/10/26 07:00:47;;;;;;;10.57;10.07;;;;;;;-143.83;100.00;62900.06;5091103;28;20024;-68
2022/10/26 07:03:12;;;;;;;11.13;10.63;;;;;;;-143.83;100.00;62900.06;5091666;28;20519;-69
2022/10/26 07:05:38;;;;;;;10.60;10.10;;;;;;;-143.83;100.00;62900.06;5085999;28;20115;-69
2022/10/26 07:08:04;;;;;;;10.95;10.45;;;;;;;-143.83;100.00;62900.06;5090616;28;20035;-69
2022/10/26 07:10:30;;;;;;;10.25;9.85;;;;;;;-143.83;100.00;62900.06;5087894;28;20033;-69
2022/10/26 07:12:56;;;;;;;10.93;10.43;;;;;;;-143.83;100.00;62900.06;5096025;28;20024;-70
2022/10/26 07:15:22;;;;;;;10.90;10.40;;;;;;;-143.83;100.00;62900.06;5085611;28;20562;-69
2022/10/26 07:17:48;;;;;;;10.95;10.45;;;;;;;-143.83;100.00;62900.06;5091786;28;20105;-70
2022/10/26 07:20:16;;;;;;;10.80;10.30;;;;;;;-143.83;100.00;62900.06;5082221;28;20028;-70
2022/10/26 07:22:41;;;;;;;11.65;11.15;;;;;;;-143.83;100.00;62900.06;5082783;28;20035;-69
2022/10/26 07:25:08;;;;;;;10.88;10.38;;;;;;;-143.83;100.00;62900.06;5086451;28;20426;-69
2022/10/26 07:27:34;;;;;;;10.80;10.30;;;;;;;-143.83;100.00;62900.06;5085756;28;20028;-70
2022/10/26 07:30:00;;;;;;;10.80;10.30;;;;;;;-143.83;100.00;62900.06;5083866;28;20070;-71
2022/10/26 07:32:25;;;;;;;11.23;10.73;;;;;;;-143.83;100.00;62900.06;5083916;28;20024;-70
2022/10/26 07:34:51;;;;;;;11.00;10.50;;;;;;;-143.83;100.00;62900.06;5084733;28;20028;-71
2022/10/26 07:37:16;;;;;;;10.40;9.90;;;;;;;-143.83;100.00;62900.06;5085480;28;20051;-69
2022/10/26 07:39:42;;;;;;;10.73;10.23;;;;;;;-143.83;100.00;62900.06;5085796;28;20111;-69
2022/10/26 07:42:08;;;;;;;11.48;10.98;;;;;;;-143.83;100.00;62900.06;5081357;28;20078;-69
2022/10/26 07:44:34;;;;;;;11.40;10.90;;;;;;;-143.83;100.00;62900.06;5087227;28;20041;-68
2022/10/26 07:46:59;;;;;;;10.93;10.43;;;;;;;-143.83;100.00;62900.06;5089392;28;20099;-66
2022/10/26 07:49:25;;;;;;;10.30;9.90;;;;;;;-143.83;100.00;62900.06;5083393;28;20438;-67
2022/10/26 07:51:51;;;;;;;11.05;10.55;;;;;;;-143.83;100.00;62900.06;5082245;28;20059;-71
2022/10/26 07:54:16;;;;;;;10.70;10.20;;;;;;;-143.83;100.00;62900.06;5087774;28;20024;-70
2022/10/26 07:56:42;;;;;;;10.70;10.20;;;;;;;-143.83;100.00;62900.06;5083150;28;20075;-70
2022/10/26 07:59:10;;;;;;;10.48;9.98;;;;;;;-143.83;100.00;62900.06;5086941;28;20107;-70
2022/10/26 08:01:36;;;;;;;10.75;10.25;;;;;;;-143.83;100.00;62900.06;5083014;28;20039;-71
2022/10/26 08:04:01;;;;;;;10.63;10.13;;;;;;;-143.83;100.00;62900.06;5082100;28;20020;-70
2022/10/26 08:06:27;;;;;;;10.60;10.10;;;;;;;-143.83;100.00;62900.06;5080496;28;20055;-72
2022/10/26 08:08:52;;;;;;;11.00;10.50;;;;;;;-143.83;100.00;62900.06;5080320;28;20052;-71
2022/10/26 08:11:18;;;;;;;10.98;10.48;;;;;;;-143.83;100.00;62900.06;5085402;28;20148;-70
2022/10/26 08:13:43;;;;;;;10.65;10.15;;;;;;;-143.83;100.00;62900.06;5086301;28;20554;-71
2022/10/26 08:16:09;;;;;;;11.32;10.82;;;;;;;-143.83;100.00;62900.06;5085540;28;20028;-69
2022/10/26 08:18:35;;;;;;;10.90;10.40;;;;;;;-143.83;100.00;62900.06;5081310;28;20031;-70
2022/10/26 08:21:03;;;;;;;10.95;10.45;;;;;;;-143.83;100.00;62900.06;5085529;28;20028;-70
2022/10/26 08:23:29;;;;;;;10.70;10.20;;;;;;;-143.83;100.00;62900.06;5080253;28;20026;-69
2022/10/26 08:26:01;;;;;;;10.63;10.13;;;;;;;-143.83;100.00;62900.06;5085048;28;20065;-67
2022/10/26 08:28:28;;;;;;;10.85;10.35;;;;;;;-143.83;100.00;62900.06;5084651;28;20040;-69
2022/10/26 08:30:54;;;;;;;10.65;10.15;;;;;;;-143.83;100.00;62900.06;5086119;28;20081;-71
2022/10/26 08:33:22;;;;;;;11.10;10.60;;;;;;;-143.83;100.00;62900.06;5091014;28;20036;-71
2022/10/26 08:35:47;;;;;;;10.75;10.25;;;;;;;-143.83;100.00;62900.06;5087247;28;20082;-69
2022/10/26 08:38:13;;;;;;;10.93;10.43;;;;;;;-143.83;100.00;62900.06;5090065;28;20127;-65
2022/10/26 08:40:41;;;;;;;11.15;10.65;;;;;;;-143.83;100.00;62900.06;5087770;28;20047;-65
2022/10/26 08:43:46;;;;;;;10.90;10.40;;;;;;;-143.83;100.00;62900.06;5085092;28;20111;-66
2022/10/26 08:46:16;;;;;;;10.68;10.18;;;;;;;-143.83;100.00;62900.06;5080257;28;20036;-65
2022/10/26 08:48:46;;;;;;;10.60;10.10;;;;;;;-143.83;100.00;62900.06;5086026;28;20020;-66
2022/10/26 08:51:23;;;;;;;10.70;10.20;;;;;;;-143.83;100.00;62900.06;5085538;28;20089;-64
2022/10/26 08:53:56;;;;;;;10.75;10.25;;;;;;;-143.83;100.00;62900.06;5086691;28;20024;-63
2022/10/26 08:56:36;;;;;;;10.30;9.88;;;;;;;-143.83;100.00;62900.06;5089466;28;20035;-64
2022/10/26 08:59:06;;;;;;;10.77;10.27;;;;;;;-143.83;100.00;62900.06;5091781;28;20040;-66
2022/10/26 09:01:33;;;;;;;11.30;10.80;;;;;;;-143.83;100.00;62900.06;5080970;28;20024;-67
2022/10/26 09:04:01;;;;;;;11.35;10.85;;;;;;;-143.83;100.00;62900.06;5081641;28;20020;-68
2022/10/26 09:06:32;;;;;;;11.13;10.63;;;;;;;-143.83;100.00;62900.06;5084523;28;20024;-67
2022/10/26 09:09:31;;;;;;;11.65;11.15;;;;;;;-143.83;100.00;62900.06;5086010;28;20020;-67
2022/10/26 09:12:13;;;;;;;11.75;11.25;;;;;;;-143.83;100.00;62900.06;5079799;28;20099;-67
2022/10/26 09:14:48;;;;;;;12.60;12.00;;;;;;;-143.83;100.00;62900.06;5079869;28;20028;-67
2022/10/26 09:17:26;;;;;;;11.45;10.95;;;;;;;-143.83;100.00;62900.06;5084153;28;20016;-67
2022/10/26 09:20:25;;;;;;;11.63;11.13;;;;;;;-143.83;100.00;62900.06;5085951;28;20039;-67
2022/10/26 09:23:12;;;;;;;11.23;10.73;;;;;;;-143.83;100.00;62900.06;5085827;28;20142;-66
2022/10/26 09:25:39;;;;;;;11.38;10.88;;;;;;;-143.83;100.00;62900.06;5088428;28;20031;-67
2022/10/26 09:28:13;;;;;;;11.70;11.20;;;;;;;-143.83;100.00;62900.06;5086195;28;20032;-67
2022/10/26 09:30:38;;;;;;;11.40;10.90;;;;;;;-143.83;100.00;62900.06;5081177;28;20078;-66
2022/10/26 09:33:15;;;;;;;11.95;11.38;;;;;;;-143.83;100.00;62900.06;5084310;28;20067;-66
2022/10/26 09:35:53;;;;;;;11.50;11.00;;;;;;;-143.83;100.00;62900.06;5083429;28;20031;-67
2022/10/26 09:38:24;;;;;;;11.45;10.95;;;;;;;-143.83;100.00;62900.06;5083644;28;20111;-66
2022/10/26 09:40:56;;;;;;;10.77;10.27;;;;;;;-143.83;100.00;62900.06;5078926;28;20466;-66
2022/10/26 09:43:32;;;;;;;10.93;10.43;;;;;;;-143.83;100.00;62900.06;5084294;28;20093;-66
2022/10/26 09:45:57;;;;;;;12.05;11.45;;;;;;;-143.83;100.00;62900.06;5079748;28;20032;-65
2022/10/26 09:48:41;;;;;;;11.85;11.27;;;;;;;-143.83;100.00;62900.06;5081686;28;20391;-66
2022/10/26 09:51:07;;;;;;;12.18;11.57;;;;;;;-143.83;100.00;62900.06;5081897;28;20041;-65
2022/10/26 09:53:33;;;;;;;11.00;10.50;;;;;;;-143.83;100.00;62900.06;5089720;28;20032;-64
2022/10/26 09:56:13;;;;;;;11.50;11.00;;;;;;;-143.83;100.00;62900.06;5082275;28;20024;-64
2022/10/26 09:58:43;;;;;;;11.15;10.65;;;;;;;-143.83;100.00;62900.06;5081958;28;20107;-65
2022/10/26 10:01:31;;;;;;;11.43;10.93;;;;;;;-143.83;100.00;62900.06;5090035;28;20059;-64
2022/10/26 10:04:24;;;;;;;11.30;10.80;;;;;;;-143.83;100.00;62900.06;5083920;28;20058;-65
2022/10/26 10:07:14;;;;;;;11.20;10.70;;;;;;;-143.83;100.00;62900.06;5077740;28;20044;-64
2022/10/26 10:09:39;;;;;;;11.20;10.70;;;;;;;-143.83;100.00;62900.06;5081208;28;20032;-65
2022/10/26 10:12:17;;;;;;;11.50;11.00;;;;;;;-143.83;100.00;62900.06;5075866;28;20055;-64
2022/10/26 10:14:55;;;;;;;10.85;10.35;;;;;;;-143.83;100.00;62900.06;5081975;28;20517;-65
2022/10/26 10:17:22;;;;;;;11.07;10.57;;;;;;;-143.83;100.00;62900.06;5083906;28;20492;-65
2022/10/26 10:19:49;;;;;;;11.27;10.77;;;;;;;-143.83;100.00;62900.06;5082126;28;20060;-66
2022/10/26 10:22:14;;;;;;;10.85;10.35;;;;;;;-143.83;100.00;62900.06;5083527;28;20027;-64
2022/10/26 10:24:41;;;;;;;10.68;10.18;;;;;;;-143.83;100.00;62900.06;5082229;28;20033;-65
2022/10/26 10:27:14;;;;;;;10.40;9.90;;;;;;;-143.83;100.00;62900.06;5084341;28;20056;-64
2022/10/26 10:29:48;;;;;;;10.70;10.20;;;;;;;-143.83;100.00;62900.06;5082868;28;20032;-64
2022/10/26 10:32:20;;;;;;;;;;;;;;;-143.83;100.00;62900.06;5088887;28;20048;-64
2022/10/26 10:34:47;;;;;;;10.95;10.45;;;;;;;-143.83;100.00;62900.06;5085013;28;19924;-63
2022/10/26 10:37:38;;;;;;;10.98;10.48;;;;;;;-143.83;100.00;62900.06;5080403;28;20027;-64
2022/10/26 10:40:13;;;;;;;10.90;10.40;;;;;;;-143.83;100.00;62900.06;5083109;28;20020;-64
2022/10/26 10:42:42;;;;;;;10.95;10.45;;;;;;;-143.83;100.00;62900.06;5079820;28;20032;-65
2022/10/26 10:45:26;;;;;;;11.48;10.98;;;;;;;-143.83;100.00;62900.06;5082575;28;20047;-65
2022/10/26 10:48:02;;;;;;;11.85;11.25;;;;;;;-143.83;100.00;62900.06;5077841;28;20054;-66
2022/10/26 10:50:29;;;;;;;10.90;10.40;;;;;;;-143.83;100.00;62900.06;5078961;28;20171;-65
2022/10/26 10:53:22;;;;;;;11.35;10.85;;;;;;;-143.83;100.00;62900.06;5092240;28;20024;-65
2022/10/26 10:56:19;;;;;;;10.65;10.15;;;;;;;-143.83;100.00;62900.06;5087366;28;20032;-65
2022/10/26 10:59:06;;;;;;;11.00;10.50;;;;;;;-143.83;100.00;62900.06;5088681;28;20115;-64
2022/10/26 11:01:39;;;;;;;10.68;10.18;;;;;;;-143.83;100.00;62900.06;5081664;28;20107;-65
2022/10/26 11:04:18;;;;;;;10.80;10.30;;;;;;;-143.83;100.00;62900.06;5092411;28;20035;-66
2022/10/26 11:06:45;;;;;;;11.63;11.10;;;;;;;-143.83;100.00;62900.06;5087953;28;20028;-65
2022/10/26 11:09:15;;;;;;;10.80;10.30;;;;;;;-143.83;100.00;62900.06;5090235;28;20131;-64
2022/10/26 11:11:50;;;;;;;11.10;10.60;;;;;;;-143.83;100.00;62900.06;5086799;28;20024;-65
2022/10/26 11:14:27;;;;;;;10.70;10.20;;;;;;;-143.83;100.00;62900.06;5088266;28;20506;-65
2022/10/26 11:17:01;;;;;;;11.23;10.73;;;;;;;-143.83;100.00;62900.06;5092002;28;20024;-65